Time;durP1;ratioP1;P1;durP2;ratioP2;P2;SDS_P1;SDS_P2;PMS_P1;PMS_P2;Temp;Humidity;BMP_temperature;BMP_pressure;BME280_temperature;BME280_humidity;BME280_pressure;Samples;Min_cycle;Max_cycle;Signal;HPM_P1;HPM_P2
2022/07/13 00:00:14;;;;;;;4.55;1.40;;;17.30;99.90;;;;;;4950837;29;20042;-73
2022/07/13 00:02:40;;;;;;;2.50;1.42;;;17.20;94.60;;;;;;4947026;29;20067;-72
2022/07/13 00:05:06;;;;;;;1.88;1.13;;;17.20;94.80;;;;;;4952655;29;20070;-73
2022/07/13 00:07:32;;;;;;;1.33;1.10;;;17.20;95.10;;;;;;4949313;29;20479;-70
2022/07/13 00:09:58;;;;;;;1.77;1.15;;;17.10;95.40;;;;;;4950538;29;20039;-72
2022/07/13 00:12:24;;;;;;;1.20;1.10;;;17.10;95.70;;;;;;4950368;29;20032;-73
2022/07/13 00:14:50;;;;;;;1.20;1.08;;;17.10;95.90;;;;;;4950124;29;20093;-73
2022/07/13 00:17:16;;;;;;;2.40;1.20;;;17.00;96.20;;;;;;4953037;29;20039;-73
2022/07/13 00:19:41;;;;;;;1.98;1.50;;;17.00;96.50;;;;;;4951388;29;20457;-72
2022/07/13 00:22:07;;;;;;;1.70;1.23;;;17.00;96.90;;;;;;4951380;29;20388;-73
2022/07/13 00:24:33;;;;;;;1.42;1.30;;;17.00;96.90;;;;;;4948885;29;20020;-72
2022/07/13 00:26:58;;;;;;;2.72;1.40;;;16.90;97.20;;;;;;4950825;29;20031;-73
2022/07/13 00:29:24;;;;;;;1.27;1.17;;;16.90;97.70;;;;;;4953045;29;20035;-73
2022/07/13 00:31:49;;;;;;;2.95;1.65;;;16.90;97.70;;;;;;4946260;29;20320;-74
2022/07/13 00:34:15;;;;;;;1.48;1.20;;;16.90;98.00;;;;;;4950830;29;20035;-73
2022/07/13 00:36:41;;;;;;;1.80;1.48;;;16.90;98.30;;;;;;4947501;29;20035;-73
2022/07/13 00:39:06;;;;;;;1.33;1.23;;;16.80;98.60;;;;;;4951931;29;20058;-73
2022/07/13 00:41:32;;;;;;;1.20;1.08;;;16.70;98.80;;;;;;4948718;29;20488;-73
2022/07/13 00:44:10;;;;;;;3.67;1.10;;;16.70;99.10;;;;;;4948641;29;20444;-73
2022/07/13 00:46:37;;;;;;;1.00;1.00;;;16.70;99.40;;;;;;4951207;29;20421;-73
2022/07/13 00:49:03;;;;;;;1.35;1.10;;;16.70;99.70;;;;;;4948324;29;20058;-73
2022/07/13 00:51:30;;;;;;;1.75;1.23;;;16.70;99.90;;;;;;4950924;28;20079;-69
2022/07/13 00:53:56;;;;;;;1.30;1.20;;;16.60;99.90;;;;;;4952290;28;20036;-73
2022/07/13 00:56:23;;;;;;;1.20;1.00;;;16.70;99.90;;;;;;4954434;29;20023;-73
2022/07/13 00:58:49;;;;;;;1.50;1.20;;;16.60;99.90;;;;;;4955907;29;20023;-72
2022/07/13 01:01:15;;;;;;;1.23;1.10;;;16.60;99.90;;;;;;4954095;29;20110;-72
2022/07/13 01:03:40;;;;;;;1.65;1.30;;;16.60;99.90;;;;;;4947693;29;20051;-72
2022/07/13 01:06:07;;;;;;;2.45;0.93;;;15.00;99.90;;;;;;4954368;29;20038;-72
2022/07/13 01:08:34;;;;;;;1.40;1.20;;;16.50;99.90;;;;;;4954479;29;20055;-74
2022/07/13 01:11:00;;;;;;;2.22;1.10;;;16.50;99.90;;;;;;4947600;29;20063;-72
2022/07/13 01:13:26;;;;;;;1.63;1.13;;;16.50;99.90;;;;;;4956696;29;20027;-72
2022/07/13 01:15:52;;;;;;;1.20;1.10;;;16.40;99.90;;;;;;4955507;29;20554;-73
2022/07/13 01:18:18;;;;;;;1.80;0.90;;;16.40;99.90;;;;;;4955780;29;20063;-72
2022/07/13 01:20:44;;;;;;;1.52;1.20;;;16.40;99.90;;;;;;4953310;29;20023;-72
2022/07/13 01:23:12;;;;;;;1.48;1.20;;;16.30;99.90;;;;;;4953746;29;20538;-73
2022/07/13 01:25:39;;;;;;;1.27;1.17;;;16.30;99.90;;;;;;4953677;29;20023;-74
2022/07/13 01:28:05;;;;;;;1.77;1.00;;;16.30;99.90;;;;;;4954977;29;20054;-74
2022/07/13 01:30:30;;;;;;;1.00;0.90;;;16.30;99.90;;;;;;4951114;29;20035;-69
2022/07/13 01:32:56;;;;;;;1.00;0.90;;;;;;;;;;4930898;29;20035;-72
2022/07/13 01:35:23;;;;;;;1.75;0.85;;;16.30;99.90;;;;;;4956143;29;20086;-74
2022/07/13 01:37:50;;;;;;;1.73;0.85;;;16.30;99.90;;;;;;4954677;29;20057;-75
2022/07/13 01:40:16;;;;;;;1.35;0.90;;;16.20;99.90;;;;;;4951769;29;20043;-74
2022/07/13 01:42:50;;;;;;;1.67;1.10;;;16.20;99.90;;;;;;4945747;29;20035;-74
2022/07/13 01:45:18;;;;;;;1.00;1.00;;;16.20;99.90;;;;;;4947558;29;20384;-73
2022/07/13 01:47:46;;;;;;;1.42;1.33;;;16.20;99.90;;;;;;4951870;29;20374;-72
2022/07/13 01:50:14;;;;;;;1.70;0.98;;;16.20;99.90;;;;;;4950701;29;20040;-73
2022/07/13 01:52:40;;;;;;;2.92;1.02;;;16.30;99.90;;;;;;4951588;29;20078;-73
2022/07/13 01:55:08;;;;;;;1.50;1.20;;;16.30;99.90;;;;;;4949136;29;20039;-73
2022/07/13 01:57:35;;;;;;;1.02;0.93;;;16.30;99.90;;;;;;4951498;29;20027;-73
2022/07/13 02:00:23;;;;;;;1.25;1.15;;;16.40;99.90;;;;;;4954733;29;20113;-73
2022/07/13 02:02:49;;;;;;;2.28;1.08;;;16.40;99.90;;;;;;4953052;29;20665;-74
2022/07/13 02:05:15;;;;;;;1.25;1.15;;;16.40;99.90;;;;;;4955271;28;20038;-74
2022/07/13 02:07:41;;;;;;;1.65;0.98;;;16.40;99.90;;;;;;4954097;29;20046;-73
2022/07/13 02:10:09;;;;;;;0.85;0.82;;;16.40;99.90;;;;;;4954320;29;20027;-73
2022/07/13 02:12:34;;;;;;;1.30;1.10;;;16.40;99.90;;;;;;4949469;29;20074;-71
2022/07/13 02:15:00;;;;;;;1.10;1.00;;;16.40;99.90;;;;;;4937556;29;20196;-73
2022/07/13 02:17:26;;;;;;;1.88;1.20;;;16.40;99.90;;;;;;4948100;29;20043;-73
2022/07/13 02:19:52;;;;;;;3.05;1.20;;;16.40;99.90;;;;;;4951020;29;20418;-74
2022/07/13 02:22:18;;;;;;;1.65;1.10;;;16.40;99.90;;;;;;4950265;29;20082;-74
2022/07/13 02:24:44;;;;;;;3.88;1.10;;;16.40;99.90;;;;;;4949934;29;20039;-75
2022/07/13 02:27:09;;;;;;;1.10;1.00;;;16.40;99.90;;;;;;4954988;29;20035;-73
2022/07/13 02:29:35;;;;;;;1.20;1.00;;;16.30;99.90;;;;;;4951620;29;20366;-72
2022/07/13 02:32:00;;;;;;;1.33;1.23;;;16.30;99.90;;;;;;4950754;29;20058;-73
2022/07/13 02:34:29;;;;;;;1.20;1.10;;;16.40;99.90;;;;;;4952931;29;20034;-72
2022/07/13 02:36:56;;;;;;;2.72;1.30;;;16.30;99.90;;;;;;4954522;29;20034;-73
2022/07/13 02:39:22;;;;;;;1.45;1.20;;;16.40;99.90;;;;;;4953867;29;20159;-73
2022/07/13 02:41:49;;;;;;;2.00;1.30;;;16.40;99.90;;;;;;4954069;29;20118;-71
2022/07/13 02:44:15;;;;;;;0.93;0.93;;;16.40;99.90;;;;;;4952194;29;20062;-75
2022/07/13 02:46:40;;;;;;;1.55;1.10;;;16.30;99.90;;;;;;4953353;29;20049;-74
2022/07/13 02:49:06;;;;;;;2.20;1.55;;;16.30;99.90;;;;;;4952403;29;20408;-74
2022/07/13 02:51:32;;;;;;;1.98;1.17;;;16.30;99.90;;;;;;4949751;28;20054;-73
2022/07/13 02:53:57;;;;;;;1.98;1.58;;;16.30;99.90;;;;;;4948938;29;20090;-74
2022/07/13 02:56:23;;;;;;;2.88;1.20;;;16.30;99.90;;;;;;4954425;29;20031;-73
2022/07/13 02:58:48;;;;;;;2.03;1.45;;;16.30;99.90;;;;;;4953877;29;20034;-72
2022/07/13 03:01:14;;;;;;;1.70;1.48;;;16.30;99.90;;;;;;4949460;29;20027;-74
2022/07/13 03:03:40;;;;;;;1.40;1.30;;;16.30;99.90;;;;;;4951927;29;20383;-73
2022/07/13 03:06:05;;;;;;;1.88;1.30;;;16.30;99.90;;;;;;4952672;29;20082;-73
2022/07/13 03:08:31;;;;;;;4.82;1.35;;;16.20;99.90;;;;;;4951925;29;20036;-70
2022/07/13 03:10:56;;;;;;;1.10;1.00;;;16.20;99.90;;;;;;4953641;29;20388;-72
2022/07/13 03:13:22;;;;;;;1.65;1.42;;;16.20;99.90;;;;;;4951826;29;20130;-73
2022/07/13 03:15:48;;;;;;;2.55;0.95;;;16.10;99.90;;;;;;4949452;29;20019;-72
2022/07/13 03:18:14;;;;;;;1.52;1.33;;;16.00;99.90;;;;;;4951338;28;20646;-71
2022/07/13 03:20:40;;;;;;;2.45;1.15;;;16.00;99.90;;;;;;4952278;29;20030;-72
2022/07/13 03:23:05;;;;;;;1.92;1.35;;;16.00;99.90;;;;;;4951821;29;20043;-73
2022/07/13 03:25:31;;;;;;;1.48;1.38;;;16.00;99.90;;;;;;4953159;29;20061;-69
2022/07/13 03:27:57;;;;;;;3.85;1.42;;;15.90;99.90;;;;;;4951085;29;20027;-70
2022/07/13 03:30:22;;;;;;;1.80;1.20;;;15.90;99.90;;;;;;4948334;29;20038;-73
2022/07/13 03:32:48;;;;;;;2.42;1.30;;;15.90;99.90;;;;;;4950809;29;20116;-74
2022/07/13 03:35:14;;;;;;;2.25;1.30;;;15.90;99.90;;;;;;4952487;29;20130;-72
2022/07/13 03:37:40;;;;;;;2.03;1.73;;;15.80;99.90;;;;;;4951423;29;20110;-72
2022/07/13 03:40:06;;;;;;;1.20;1.10;;;15.80;99.90;;;;;;4950408;29;20166;-73
2022/07/13 03:42:34;;;;;;;1.08;1.00;;;15.70;99.90;;;;;;4949115;29;20027;-73
2022/07/13 03:45:00;;;;;;;1.05;1.00;;;15.70;99.90;;;;;;4953690;29;20354;-74
2022/07/13 03:47:26;;;;;;;1.98;1.48;;;15.70;99.90;;;;;;4951209;29;20027;-72
2022/07/13 03:49:51;;;;;;;2.50;1.58;;;15.70;99.90;;;;;;4951504;29;20038;-73
2022/07/13 03:52:17;;;;;;;1.92;1.30;;;15.70;99.90;;;;;;4935353;29;20047;-73
2022/07/13 03:54:43;;;;;;;3.90;1.50;;;15.70;99.90;;;;;;4945953;29;20038;-73
2022/07/13 03:57:08;;;;;;;1.30;1.20;;;15.70;99.90;;;;;;4950348;29;20035;-74
2022/07/13 03:59:34;;;;;;;2.05;1.30;;;15.70;99.90;;;;;;4951662;29;20038;-74
2022/07/13 04:02:00;;;;;;;2.63;1.40;;;15.70;99.90;;;;;;4952917;29;20030;-73
2022/07/13 04:04:27;;;;;;;2.15;1.17;;;15.70;99.90;;;;;;4949087;29;20043;-73
2022/07/13 04:06:53;;;;;;;2.42;1.30;;;15.70;99.90;;;;;;4952085;29;20126;-74
2022/07/13 04:09:19;;;;;;;1.83;1.02;;;15.70;99.90;;;;;;4947573;29;20099;-74
2022/07/13 04:11:45;;;;;;;1.75;1.10;;;15.70;99.90;;;;;;4948663;29;20039;-74
2022/07/13 04:14:10;;;;;;;1.35;1.02;;;15.70;99.90;;;;;;4951600;29;20035;-75
2022/07/13 04:16:36;;;;;;;1.35;0.90;;;15.70;99.90;;;;;;4948926;29;20034;-74
2022/07/13 04:19:02;;;;;;;0.90;0.90;;;15.60;99.90;;;;;;4951736;29;20407;-73
2022/07/13 04:21:27;;;;;;;1.40;1.30;;;15.60;99.90;;;;;;4952856;29;20090;-69
2022/07/13 04:23:53;;;;;;;1.55;1.20;;;15.60;99.90;;;;;;4951046;29;20031;-72
2022/07/13 04:26:19;;;;;;;2.33;1.40;;;15.60;99.90;;;;;;4951995;29;20031;-72
2022/07/13 04:28:45;;;;;;;3.53;1.35;;;15.60;99.90;;;;;;4950514;28;20035;-72
2022/07/13 04:31:10;;;;;;;1.75;1.48;;;15.60;99.90;;;;;;4950211;29;20027;-74
2022/07/13 04:33:36;;;;;;;1.20;1.10;;;15.70;99.90;;;;;;4947909;29;20469;-73
2022/07/13 04:36:02;;;;;;;1.08;1.02;;;15.70;99.90;;;;;;4953274;29;20102;-73
2022/07/13 04:38:27;;;;;;;2.80;1.50;;;15.70;99.90;;;;;;4950433;29;20034;-70
2022/07/13 04:40:53;;;;;;;1.67;1.30;;;15.80;99.90;;;;;;4946068;29;20073;-73
2022/07/13 04:43:18;;;;;;;1.50;1.38;;;15.80;99.90;;;;;;4951112;29;20023;-73
2022/07/13 04:45:44;;;;;;;2.78;1.30;;;15.80;99.90;;;;;;4948792;29;20098;-73
2022/07/13 04:48:10;;;;;;;1.50;1.40;;;15.90;99.90;;;;;;4952082;29;20113;-73
2022/07/13 04:50:35;;;;;;;4.03;1.70;;;16.10;99.90;;;;;;4948513;28;20515;-73
2022/07/13 04:53:01;;;;;;;2.42;1.40;;;16.20;99.90;;;;;;4952238;29;20043;-73
2022/07/13 04:55:28;;;;;;;1.83;1.30;;;16.30;99.90;;;;;;4951562;29;20045;-72
2022/07/13 04:57:55;;;;;;;2.40;1.40;;;16.30;99.90;;;;;;4952177;29;20019;-73
2022/07/13 05:00:22;;;;;;;1.58;1.40;;;16.40;99.90;;;;;;4935375;29;20446;-72
2022/07/13 05:02:47;;;;;;;1.90;1.63;;;16.50;99.90;;;;;;4949502;29;20172;-73
2022/07/13 05:05:13;;;;;;;2.13;1.52;;;16.50;99.90;;;;;;4950343;29;20491;-73
2022/07/13 05:07:38;;;;;;;1.13;1.10;;;16.60;99.90;;;;;;4951091;29;20507;-72
2022/07/13 05:10:04;;;;;;;1.88;1.60;;;16.70;99.90;;;;;;4948369;29;20110;-73
2022/07/13 05:12:30;;;;;;;2.42;1.63;;;16.80;99.90;;;;;;4945087;29;20114;-69
2022/07/13 05:14:57;;;;;;;1.52;1.42;;;16.90;99.90;;;;;;4952644;29;20354;-73
2022/07/13 05:17:23;;;;;;;1.75;1.63;;;17.00;99.90;;;;;;4951598;29;20027;-72
2022/07/13 05:19:49;;;;;;;1.88;1.50;;;17.10;99.90;;;;;;4949844;29;20096;-72
2022/07/13 05:22:15;;;;;;;3.28;1.77;;;17.20;99.90;;;;;;4951478;29;20073;-74
2022/07/13 05:24:43;;;;;;;1.52;1.33;;;17.30;99.90;;;;;;4951468;29;20039;-73
2022/07/13 05:27:11;;;;;;;2.78;1.85;;;17.40;99.90;;;;;;4950179;29;20111;-72
2022/07/13 05:29:37;;;;;;;2.75;1.88;;;17.50;99.90;;;;;;4946126;29;20023;-74
2022/07/13 05:32:03;;;;;;;2.00;1.58;;;17.80;99.90;;;;;;4930433;29;20043;-72
2022/07/13 05:34:29;;;;;;;3.05;1.70;;;18.00;99.90;;;;;;4948995;29;20062;-69
2022/07/13 05:36:57;;;;;;;1.73;1.60;;;18.20;99.90;;;;;;4931087;29;20083;-73
2022/07/13 05:39:23;;;;;;;3.17;2.00;;;18.30;99.90;;;;;;4950847;29;20045;-74
2022/07/13 05:41:48;;;;;;;3.05;1.73;;;18.50;99.90;;;;;;4951552;28;20216;-74
2022/07/13 05:44:14;;;;;;;3.58;1.98;;;18.80;99.90;;;;;;4955222;29;20031;-73
2022/07/13 05:46:39;;;;;;;2.33;1.90;;;19.00;99.90;;;;;;4954884;29;20027;-72
2022/07/13 05:49:05;;;;;;;2.72;1.70;;;19.20;99.90;;;;;;4954817;29;20074;-73
2022/07/13 05:51:31;;;;;;;2.67;1.55;;;19.40;99.90;;;;;;4953923;28;20047;-70
2022/07/13 05:53:56;;;;;;;2.83;1.83;;;19.50;99.90;;;;;;4952939;29;20473;-73
2022/07/13 05:56:22;;;;;;;4.47;1.80;;;19.50;99.90;;;;;;4954018;29;20067;-73
2022/07/13 05:58:48;;;;;;;5.75;1.80;;;19.50;99.90;;;;;;4950072;29;20032;-73
2022/07/13 06:01:13;;;;;;;4.47;1.70;;;19.40;99.90;;;;;;4949936;29;20027;-75
2022/07/13 06:03:39;;;;;;;7.68;1.80;;;19.40;99.90;;;;;;4952408;29;20031;-74
2022/07/13 06:06:05;;;;;;;12.40;2.20;;;19.30;99.90;;;;;;4950396;29;20042;-74
2022/07/13 06:08:31;;;;;;;6.68;2.63;;;19.30;99.90;;;;;;4953111;29;20401;-70
2022/07/13 06:10:56;;;;;;;3.28;1.90;;;19.40;99.90;;;;;;4953070;29;20038;-74
2022/07/13 06:13:22;;;;;;;5.35;1.92;;;19.40;99.90;;;;;;4955283;29;20050;-72
2022/07/13 06:15:47;;;;;;;3.92;1.77;;;19.50;99.90;;;;;;4953066;29;20583;-74
2022/07/13 06:18:13;;;;;;;4.45;1.95;;;19.70;99.90;;;;;;4951990;29;20042;-74
2022/07/13 06:20:39;;;;;;;6.20;2.28;;;19.80;99.90;;;;;;4954017;29;20034;-74
2022/07/13 06:23:10;;;;;;;9.68;1.90;;;20.00;99.90;;;;;;4959567;29;20035;-73
2022/07/13 06:25:40;;;;;;;7.63;1.98;;;20.20;99.90;;;;;;4954334;29;20031;-71
2022/07/13 06:28:06;;;;;;;6.47;2.65;;;20.40;99.90;;;;;;4950346;29;20092;-71
2022/07/13 06:30:35;;;;;;;6.45;2.20;;;20.70;99.90;;;;;;4953295;29;20038;-75
2022/07/13 06:33:01;;;;;;;9.35;2.50;;;20.90;99.90;;;;;;4952501;28;20452;-71
2022/07/13 06:35:29;;;;;;;7.70;2.55;;;21.10;99.90;;;;;;4953726;29;20110;-75
2022/07/13 06:37:54;;;;;;;13.55;3.03;;;21.10;99.90;;;;;;4947790;28;20035;-71
2022/07/13 06:40:20;;;;;;;11.77;2.40;;;21.20;99.90;;;;;;4954732;29;20235;-70
2022/07/13 06:42:46;;;;;;;7.13;2.60;;;21.30;99.90;;;;;;4949323;29;20027;-70
2022/07/13 06:45:12;;;;;;;14.35;3.05;;;21.30;99.90;;;;;;4948420;29;20050;-70
2022/07/13 06:47:39;;;;;;;23.60;3.88;;;21.40;99.90;;;;;;4950066;29;20031;-71
2022/07/13 06:50:08;;;;;;;9.23;2.53;;;21.40;99.90;;;;;;4949492;28;20130;-70
2022/07/13 06:52:35;;;;;;;4.72;2.17;;;21.50;99.90;;;;;;4950022;28;20035;-72
2022/07/13 06:55:00;;;;;;;6.85;2.30;;;21.50;99.90;;;;;;4935690;29;20043;-72
2022/07/13 06:57:26;;;;;;;26.05;4.28;;;21.50;99.90;;;;;;4948378;29;20032;-71
2022/07/13 06:59:51;;;;;;;8.68;2.47;;;21.70;99.90;;;;;;4951937;29;20465;-71
2022/07/13 07:02:17;;;;;;;4.25;2.08;;;21.70;99.90;;;;;;4952330;29;20031;-71
2022/07/13 07:04:43;;;;;;;3.70;2.10;;;21.80;99.90;;;;;;4949691;29;20034;-70
2022/07/13 07:07:09;;;;;;;7.40;1.90;;;21.80;99.90;;;;;;4952385;29;20042;-71
2022/07/13 07:09:35;;;;;;;5.32;1.77;;;21.80;99.40;;;;;;4952799;29;20035;-71
2022/07/13 07:12:01;;;;;;;6.25;1.88;;;21.90;99.50;;;;;;4953111;28;20047;-71
2022/07/13 07:14:27;;;;;;;5.18;2.10;;;22.00;99.50;;;;;;4953526;29;20102;-71
2022/07/13 07:16:52;;;;;;;5.38;1.88;;;22.10;98.90;;;;;;4951241;29;20456;-72
2022/07/13 07:19:18;;;;;;;5.43;1.63;;;22.20;98.50;;;;;;4945664;29;20031;-71
2022/07/13 07:21:43;;;;;;;7.65;2.25;;;22.40;98.40;;;;;;4947412;29;20040;-71
2022/07/13 07:24:09;;;;;;;4.78;1.55;;;22.50;98.40;;;;;;4952529;29;20034;-70
2022/07/13 07:26:35;;;;;;;7.20;2.28;;;22.70;98.10;;;;;;4950461;29;20416;-71
2022/07/13 07:29:00;;;;;;;1.73;1.15;;;22.90;97.40;;;;;;4951761;29;20059;-71
2022/07/13 07:31:26;;;;;;;3.58;1.35;;;23.00;97.30;;;;;;4946333;28;20384;-71
2022/07/13 07:33:52;;;;;;;1.63;1.48;;;23.20;95.80;;;;;;4947125;29;20031;-70
2022/07/13 07:36:17;;;;;;;2.95;0.98;;;23.40;95.10;;;;;;4953432;29;20038;-75
2022/07/13 07:38:44;;;;;;;3.25;1.00;;;23.50;94.10;;;;;;4953039;29;20031;-72
2022/07/13 07:41:10;;;;;;;2.47;1.25;;;23.80;94.00;;;;;;4951195;29;20102;-71
2022/07/13 07:43:36;;;;;;;2.40;1.67;;;23.90;93.60;;;;;;4951393;29;20031;-71
2022/07/13 07:46:02;;;;;;;6.30;1.83;;;24.30;94.10;;;;;;4951713;28;20106;-72
2022/07/13 07:48:28;;;;;;;2.53;1.60;;;24.60;93.80;;;;;;4942447;28;20102;-76
2022/07/13 07:50:54;;;;;;;18.00;2.75;;;24.70;93.30;;;;;;4951878;28;20043;-71
2022/07/13 07:53:19;;;;;;;13.82;1.95;;;24.80;93.30;;;;;;4942985;29;20536;-70
2022/07/13 07:55:46;;;;;;;6.70;1.92;;;25.00;92.70;;;;;;4952116;28;20058;-71
2022/07/13 07:58:13;;;;;;;8.95;2.05;;;25.20;92.10;;;;;;4949588;28;20353;-71
2022/07/13 08:00:39;;;;;;;8.60;1.80;;;25.40;91.80;;;;;;4946582;29;20034;-72
2022/07/13 08:03:06;;;;;;;6.80;1.73;;;25.70;91.60;;;;;;4946516;28;20035;-71
2022/07/13 08:05:32;;;;;;;4.00;1.55;;;25.90;90.70;;;;;;4951899;29;20107;-79
2022/07/13 08:07:58;;;;;;;5.07;2.13;;;26.20;90.50;;;;;;4950154;29;20066;-73
2022/07/13 08:10:24;;;;;;;3.92;1.60;;;26.50;90.00;;;;;;4946668;29;20053;-72
2022/07/13 08:12:51;;;;;;;6.03;1.75;;;26.90;89.10;;;;;;4950990;29;20461;-70
2022/07/13 08:15:16;;;;;;;5.80;2.10;;;27.00;87.20;;;;;;4953854;28;20039;-72
2022/07/13 08:17:42;;;;;;;3.92;1.77;;;27.00;86.50;;;;;;4944303;28;20035;-71
2022/07/13 08:20:08;;;;;;;9.98;2.38;;;26.90;86.60;;;;;;4949609;29;20114;-73
2022/07/13 08:22:34;;;;;;;2.38;1.48;;;26.90;86.60;;;;;;4950862;29;20067;-74
2022/07/13 08:25:00;;;;;;;7.13;2.00;;;27.00;87.10;;;;;;4952661;29;20117;-73
2022/07/13 08:27:30;;;;;;;5.15;1.55;;;27.20;84.90;;;;;;4951442;29;20035;-71
2022/07/13 08:29:56;;;;;;;11.38;2.17;;;27.30;83.70;;;;;;4948533;29;20032;-70
2022/07/13 08:32:22;;;;;;;9.10;1.90;;;27.40;83.60;;;;;;4946938;29;20037;-70
2022/07/13 08:40:20;;;;;;;51.97;3.95;;;27.60;82.80;;;;;;4942837;29;20083;-71
2022/07/13 08:42:46;;;;;;;17.55;2.10;;;27.70;82.60;;;;;;4943338;29;20058;-70
2022/07/13 08:45:12;;;;;;;6.35;1.33;;;27.90;82.00;;;;;;4949488;29;20038;-70
2022/07/13 08:47:39;;;;;;;22.55;2.70;;;28.10;81.60;;;;;;4950612;29;20035;-71
2022/07/13 08:50:06;;;;;;;15.07;1.73;;;28.30;80.50;;;;;;4952203;28;20507;-72
2022/07/13 08:52:35;;;;;;;1.63;0.90;;;28.40;77.20;;;;;;4951564;29;20043;-77
2022/07/13 08:55:03;;;;;;;2.88;0.70;;;28.50;71.70;;;;;;4942384;29;20407;-71
2022/07/13 08:57:29;;;;;;;6.72;1.42;;;28.60;70.00;;;;;;4950662;29;20079;-72
2022/07/13 08:59:55;;;;;;;2.95;1.20;;;28.70;68.90;;;;;;4943984;29;20032;-71
2022/07/13 09:05:46;;;;;;;3.13;0.73;;;28.90;66.80;;;;;;4943262;29;20555;-72
2022/07/13 09:08:12;;;;;;;4.28;0.80;;;29.00;66.10;;;;;;4949528;29;20480;-73
2022/07/13 09:10:58;;;;;;;4.10;1.10;;;29.00;65.90;;;;;;4953732;29;20086;-72
2022/07/13 09:13:38;;;;;;;5.20;0.98;;;29.00;66.10;;;;;;4945395;28;20419;-72
2022/07/13 09:16:16;;;;;;;25.08;2.78;;;29.00;65.70;;;;;;4954872;28;20039;-72
2022/07/13 09:18:44;;;;;;;6.85;1.35;;;28.90;66.10;;;;;;4951947;29;20031;-71
2022/07/13 09:21:09;;;;;;;2.00;0.75;;;28.80;66.40;;;;;;4953829;29;20404;-71
2022/07/13 09:23:35;;;;;;;2.63;0.75;;;28.80;65.70;;;;;;4955099;28;20027;-71
2022/07/13 09:26:01;;;;;;;12.25;1.60;;;28.80;65.90;;;;;;4947960;29;20465;-72
2022/07/13 09:28:26;;;;;;;4.57;1.30;;;28.80;66.20;;;;;;4947368;29;20519;-72
2022/07/13 09:31:00;;;;;;;27.20;2.33;;;28.90;65.60;;;;;;4955115;29;20034;-71
2022/07/13 09:33:33;;;;;;;5.38;0.75;;;29.10;65.10;;;;;;4955424;29;20391;-72
2022/07/13 09:36:11;;;;;;;106.82;6.38;;;29.20;64.50;;;;;;4953349;29;20461;-71
2022/07/13 09:38:41;;;;;;;48.72;4.15;;;29.40;63.50;;;;;;4951332;29;20030;-71
2022/07/13 09:41:18;;;;;;;7.95;1.02;;;29.60;77.00;;;;;;4953456;29;20031;-70
2022/07/13 09:46:59;;;;;;;9.90;1.10;;;30.00;76.70;;;;;;4954297;29;20086;-72
2022/07/13 09:49:46;;;;;;;0.98;0.70;;;30.00;76.00;;;;;;4954613;29;20032;-72
2022/07/13 09:52:19;;;;;;;1.05;0.77;;;30.00;74.50;;;;;;4915707;29;20044;-71
2022/07/13 09:54:51;;;;;;;5.35;1.23;;;30.00;72.60;;;;;;4915488;29;20028;-72
2022/07/13 09:57:21;;;;;;;3.45;1.00;;;30.00;72.50;;;;;;4914381;29;20121;-72
2022/07/13 09:59:50;;;;;;;3.45;1.23;;;;;;;;;;4912764;29;20083;-72
2022/07/13 10:02:16;;;;;;;5.30;0.70;;;;;;;;;;4917078;29;20451;-71
2022/07/13 10:04:43;;;;;;;1.20;0.70;;;;;;;;;;4916399;29;20135;-72
2022/07/13 10:07:09;;;;;;;1.52;0.70;;;;;;;;;;4915283;29;20035;-70
2022/07/13 10:09:39;;;;;;;2.72;0.80;;;30.70;53.10;;;;;;4915418;29;20485;-69
2022/07/13 10:12:09;;;;;;;1.55;0.70;;;30.70;53.50;;;;;;4913513;29;20040;-71
2022/07/13 10:14:36;;;;;;;20.80;1.98;;;30.70;52.60;;;;;;4914125;29;20074;-69
2022/07/13 10:17:13;;;;;;;25.25;1.88;;;30.80;53.80;;;;;;4916372;29;20478;-72
2022/07/13 10:19:44;;;;;;;17.88;1.52;;;30.80;53.80;;;;;;4916278;29;20032;-72
2022/07/13 10:22:16;;;;;;;0.60;0.60;;;30.80;53.30;;;;;;4916668;29;20118;-69
2022/07/13 10:24:52;;;;;;;1.13;0.70;;;30.90;52.60;;;;;;4915639;29;20036;-71
2022/07/13 10:27:25;;;;;;;0.98;0.63;;;30.80;52.30;;;;;;4912179;29;20103;-73
2022/07/13 10:29:53;;;;;;;3.67;0.68;;;31.00;51.70;;;;;;4911890;29;20036;-73
2022/07/13 10:32:31;;;;;;;2.35;0.60;;;31.00;51.50;;;;;;4916585;29;20170;-73
2022/07/13 10:35:05;;;;;;;0.38;0.38;;;31.10;50.60;;;;;;4916065;29;20487;-73
2022/07/13 10:37:57;;;;;;;0.70;0.57;;;31.20;50.20;;;;;;4913791;29;20035;-73
2022/07/13 10:40:24;;;;;;;0.65;0.47;;;31.20;49.60;;;;;;4915467;29;20043;-70
2022/07/13 10:43:00;;;;;;;0.55;0.50;;;31.20;50.40;;;;;;4915001;29;20032;-72
2022/07/13 10:45:34;;;;;;;1.65;0.50;;;31.20;49.20;;;;;;4909207;29;20453;-72
2022/07/13 10:48:20;;;;;;;1.95;0.77;;;31.20;48.10;;;;;;4908952;29;20032;-72
2022/07/13 10:50:47;;;;;;;1.45;0.47;;;;;;;;;;4926213;28;20049;-71
2022/07/13 10:53:16;;;;;;;1.00;0.57;;;31.80;46.20;;;;;;4953967;29;20067;-71
2022/07/13 10:55:49;;;;;;;1.90;0.52;;;31.90;47.10;;;;;;4953811;28;20118;-74
2022/07/13 10:58:42;;;;;;;0.50;0.30;;;32.30;45.70;;;;;;4949154;29;20027;-71
2022/07/13 11:01:49;;;;;;;0.70;0.50;;;32.60;43.50;;;;;;4946882;29;20024;-71
2022/07/13 11:04:18;;;;;;;2.40;0.60;;;32.60;43.70;;;;;;4857208;29;20483;-71
2022/07/13 11:07:04;;;;;;;0.40;0.40;;;;;;;;;;4854245;29;20399;-72
2022/07/13 11:09:30;;;;;;;2.90;1.00;;;;;;;;;;4848502;29;20038;-71
2022/07/13 11:11:56;;;;;;;2.88;0.77;;;;;;;;;;4856138;29;20060;-71
2022/07/13 11:14:51;;;;;;;0.80;0.80;;;;;;;;;;4851172;29;20042;-71
2022/07/13 11:17:19;;;;;;;0.73;0.73;;;33.50;40.90;;;;;;4846175;29;20408;-71
2022/07/13 11:19:49;;;;;;;0.60;0.60;;;33.40;41.70;;;;;;4853158;29;20060;-70
2022/07/13 11:22:16;;;;;;;0.30;0.30;;;33.70;42.40;;;;;;4851045;29;20048;-71
2022/07/13 11:27:52;;;;;;;1.13;0.50;;;34.00;40.40;;;;;;4851833;29;20545;-71
2022/07/13 11:30:27;;;;;;;3.13;0.57;;;34.10;40.80;;;;;;4856289;29;20038;-71
2022/07/13 11:32:53;;;;;;;7.75;0.82;;;34.00;41.00;;;;;;4850407;29;20125;-71
2022/07/13 11:35:20;;;;;;;1.05;0.60;;;33.80;44.10;;;;;;4917082;29;20054;-71
2022/07/13 11:37:46;;;;;;;9.20;1.27;;;33.60;42.60;;;;;;4949946;28;20027;-70
2022/07/13 11:40:25;;;;;;;0.70;0.70;;;33.40;43.50;;;;;;4951705;29;20117;-71
2022/07/13 11:42:53;;;;;;;2.20;0.63;;;33.50;42.70;;;;;;4952495;29;20035;-72
2022/07/13 11:45:30;;;;;;;16.27;1.10;;;33.60;43.10;;;;;;4952732;29;20066;-72
2022/07/13 11:48:04;;;;;;;0.82;0.30;;;33.70;42.30;;;;;;4952286;28;20023;-72
2022/07/13 11:50:50;;;;;;;2.05;0.68;;;33.70;41.80;;;;;;4952979;28;20055;-72
2022/07/13 11:53:30;;;;;;;5.13;0.75;;;33.90;41.20;;;;;;4947976;29;20040;-72
2022/07/13 11:56:08;;;;;;;5.78;0.55;;;34.10;41.20;;;;;;4951564;29;20090;-71
2022/07/13 11:58:35;;;;;;;0.80;0.80;;;34.10;41.30;;;;;;4952691;29;20051;-71
2022/07/13 12:01:10;;;;;;;3.13;0.68;;;34.10;41.20;;;;;;4950324;29;20031;-70
2022/07/13 12:03:35;;;;;;;6.53;0.55;;;34.20;41.40;;;;;;4936358;29;20042;-70
2022/07/13 12:06:07;;;;;;;0.98;0.40;;;34.50;41.20;;;;;;4952960;29;20400;-71
2022/07/13 12:08:35;;;;;;;2.72;0.68;;;34.60;40.80;;;;;;4947040;29;20034;-70
2022/07/13 12:11:02;;;;;;;0.68;0.60;;;34.80;40.70;;;;;;4949181;29;20122;-71
2022/07/13 12:13:31;;;;;;;0.55;0.55;;;35.00;40.70;;;;;;4943658;29;20050;-71
2022/07/13 12:15:56;;;;;;;0.55;0.40;;;35.00;40.40;;;;;;4948331;29;20666;-71
2022/07/13 12:18:22;;;;;;;5.47;0.80;;;35.20;40.60;;;;;;4952059;29;20039;-71
2022/07/13 12:20:48;;;;;;;1.00;0.77;;;35.40;40.60;;;;;;4948139;28;20027;-72
2022/07/13 12:23:15;;;;;;;1.50;0.70;;;35.70;39.20;;;;;;4951690;29;20767;-72
2022/07/13 12:25:41;;;;;;;2.33;0.63;;;35.90;38.70;;;;;;4942229;29;20043;-69
2022/07/13 12:28:11;;;;;;;0.60;0.60;;;36.00;38.80;;;;;;4948563;29;20035;-72
2022/07/13 12:30:54;;;;;;;0.77;0.70;;;36.30;38.90;;;;;;4947150;29;20067;-69
2022/07/13 12:33:20;;;;;;;1.27;0.73;;;36.30;37.40;;;;;;4935458;29;20400;-71
2022/07/13 12:35:46;;;;;;;5.57;0.77;;;36.00;37.60;;;;;;4952324;29;20027;-72
2022/07/13 12:38:14;;;;;;;1.58;0.60;;;36.00;37.50;;;;;;4932356;29;20042;-72
2022/07/13 12:40:43;;;;;;;4.82;0.60;;;36.00;37.40;;;;;;4946127;28;20031;-69
2022/07/13 12:43:22;;;;;;;2.17;0.70;;;35.90;38.00;;;;;;4952580;29;20046;-72
2022/07/13 12:45:50;;;;;;;10.38;0.90;;;35.60;37.80;;;;;;4944223;29;20046;-71
2022/07/13 12:48:21;;;;;;;0.70;0.60;;;35.30;37.70;;;;;;4952449;28;20035;-71
2022/07/13 12:51:13;;;;;;;8.10;0.80;;;35.20;39.00;;;;;;4952312;28;20047;-73
2022/07/13 12:53:58;;;;;;;1.98;0.70;;;35.20;38.60;;;;;;4946652;29;20035;-70
2022/07/13 12:56:26;;;;;;;0.43;0.43;;;35.20;38.10;;;;;;4951094;29;20023;-71
2022/07/13 12:59:05;;;;;;;1.75;0.77;;;35.30;38.40;;;;;;4954245;29;20102;-72
2022/07/13 13:01:32;;;;;;;0.85;0.60;;;35.30;38.50;;;;;;4951778;29;20031;-72
2022/07/13 13:04:00;;;;;;;2.10;0.50;;;35.40;38.60;;;;;;4952270;29;20031;-72
2022/07/13 13:06:26;;;;;;;2.95;0.57;;;35.40;38.60;;;;;;4956259;29;20039;-72
2022/07/13 13:09:05;;;;;;;1.35;0.65;;;35.30;38.00;;;;;;4954316;28;20027;-72